createdAt,value
2023-09-28T00:14:37.287Z,82.37
2023-09-28T00:29:40.516Z,81.70
2023-09-28T01:01:23.433Z,83.69
2023-09-28T01:16:26.834Z,82.80
2023-09-28T01:31:30.028Z,81.65
2023-09-28T01:46:33.169Z,81.21
2023-09-28T02:01:39.844Z,82.52
2023-09-28T02:16:44.567Z,84.44
2023-09-28T02:31:50.663Z,82.98
2023-09-28T02:46:56.557Z,84.44
2023-09-28T03:01:59.840Z,84.08
2023-09-28T03:17:03.612Z,83.23
2023-09-28T03:32:09.341Z,83.23
2023-09-28T03:47:16.408Z,82.79
2023-09-28T04:02:22.658Z,83.52
2023-09-28T04:17:28.375Z,84.72
2023-09-28T04:32:35.132Z,85.08
2023-09-28T04:47:44.536Z,83.53
2023-09-28T05:02:52.663Z,84.70
2023-09-28T05:17:56.247Z,84.34
2023-09-28T05:32:59.930Z,85.01
2023-09-28T05:48:12.705Z,84.78
2023-09-28T06:03:19.816Z,84.53
2023-09-28T06:18:28.566Z,82.57
2023-09-28T06:33:32.462Z,80.30
2023-09-28T06:48:36.483Z,80.45
2023-09-28T07:03:41.133Z,78.03
2023-09-28T07:18:44.361Z,72.77
2023-09-28T07:33:47.722Z,72.43
2023-09-28T07:48:55.722Z,70.00
2023-09-28T08:03:59.085Z,67.15
2023-09-28T08:19:03.917Z,63.70
2023-09-28T08:34:22.152Z,63.22
2023-09-28T08:49:32.974Z,62.60
2023-09-28T09:04:36.232Z,61.03
2023-09-28T09:19:49.638Z,60.04
2023-09-28T09:34:56.143Z,61.48
2023-09-28T09:50:01.110Z,58.69
2023-09-28T10:05:05.932Z,57.63
2023-09-28T10:20:10.478Z,56.54
2023-09-28T10:35:24.591Z,54.64
2023-09-28T10:50:30.982Z,55.14
2023-09-28T11:05:35.886Z,51.85
2023-09-28T11:20:40.806Z,50.54
2023-09-28T11:35:43.944Z,48.60
2023-09-28T11:50:50.371Z,49.66
2023-09-28T12:06:01.455Z,49.81
2023-09-28T12:21:23.722Z,47.54
2023-09-28T12:36:28.146Z,47.74
2023-09-28T12:52:24.797Z,48.40
2023-09-28T13:07:28.396Z,47.69
2023-09-28T13:22:31.833Z,48.48
2023-09-28T13:37:35.516Z,48.04
2023-09-28T13:52:38.961Z,47.86
2023-09-28T14:07:43.458Z,49.07
2023-09-28T14:22:51.860Z,47.39
2023-09-28T14:38:01.469Z,46.79
2023-09-28T14:53:08.635Z,46.60
2023-09-28T15:08:13.873Z,46.99
2023-09-28T15:23:18.560Z,46.10
2023-09-28T15:38:23.489Z,44.63
2023-09-28T15:53:39.375Z,46.56
2023-09-28T16:08:52.097Z,48.46
2023-09-28T16:23:57.586Z,48.18
2023-09-28T16:39:08.354Z,50.14
2023-09-28T16:54:11.864Z,55.00
2023-09-28T17:09:21.577Z,58.21
2023-09-28T17:24:30.443Z,58.25
2023-09-28T17:39:39.280Z,59.72
2023-09-28T17:54:45.374Z,63.69
2023-09-28T18:09:50.749Z,63.56
2023-09-28T18:24:54.761Z,64.25
2023-09-28T18:40:01.350Z,66.26
2023-09-28T18:55:05.556Z,68.64
2023-09-28T19:10:10.072Z,70.39
2023-09-28T19:25:16.298Z,71.77
2023-09-28T19:40:19.747Z,71.85
2023-09-28T19:55:22.916Z,73.26
2023-09-28T20:10:26.587Z,73.80
2023-09-28T20:25:29.915Z,74.24
2023-09-28T20:40:39.046Z,73.85
2023-09-28T20:55:42.337Z,75.92
2023-09-28T21:10:50.520Z,74.91
2023-09-28T21:25:53.871Z,76.68
2023-09-28T21:40:57.094Z,76.07
2023-09-28T21:56:01.598Z,76.59
2023-09-28T22:11:06.573Z,76.95
2023-09-28T22:26:10.441Z,75.20
2023-09-28T22:41:16.132Z,77.22
2023-09-28T22:56:20.339Z,78.91
2023-09-28T23:11:24.631Z,78.43
2023-09-28T23:26:28.555Z,79.67
2023-09-28T23:41:43.586Z,80.26
2023-09-28T23:56:47.310Z,79.51
